Costa Serena — ICAZ — position and weather

sailwx.info

Track history (hours):
 
Tides and Currents Weather Stations Pressure Air Temp Water Temp Dewpoint Dewpoint Depression Visibility Wind Speed Wind Dir Waves Ship Positions

Costa Serena

Last reported at 2018-Nov-08 12:05 UTC. Time now 2018-Nov-13 07:05 UTC.
Position N 31°06' E 122°25'.

Length 290 m; draft 8.2 m.

Type: Ship. MMSI: 247187600.

Date/timePositionNaut miles runAvg speedWind from/ knotsBaromVisibWave heightAir tempDewpointWater temp
2018-Nov-08 12:05N 31°06' E 122°25'511.4
2018-Nov-08 11:40N 31°06' E 122°19'412.5
2018-Nov-08 11:20N 31°08' E 122°15'811.1
2018-Nov-08 10:36N 31°13' E 122°07'313.3
2018-Nov-08 10:22N 31°14' E 122°04'814.7
2018-Nov-08 09:50N 31°16' E 121°55'714.9
2018-Nov-08 09:24N 31°18' E 121°48'3 0.3
2018-Nov-07 22:59N 31°19' E 121°45'610.0
2018-Nov-07 22:24N 31°16' E 121°51'3 8.9
2018-Nov-07 22:02N 31°16' E 121°55'4 8.0
2018-Nov-07 21:32N 31°15' E 121°59'4 7.7
2018-Nov-07 21:02N 31°14' E 122°04'4 8.2
2018-Nov-07 20:32N 31°12' E 122°08'4 8.4
2018-Nov-07 20:02N 31°10' E 122°12'5 9.3
2018-Nov-07 19:32N 31°07' E 122°16'7 9.7
2018-Nov-07 18:47N 31°07' E 122°25'2 5.2
2018-Nov-07 18:19N 31°07' E 122°28'5 7.2
2018-Nov-07 17:33N 31°07' E 122°34'  
2018-Nov-03 23:19N 31°21' E 121°40'310.7
2018-Nov-03 23:00N 31°19' E 121°44'611.1
2018-Nov-03 22:30N 31°17' E 121°50'19 9.2
2018-Nov-03 20:28N 31°11' E 122°10'3 7.7
2018-Nov-03 20:03N 31°09' E 122°14'0 7.9
2018-Nov-03 20:00N 31°09' E 122°14'4 7.1
2018-Nov-03 19:30N 31°07' E 122°17'5 9.7
2018-Nov-03 19:02N 31°06' E 122°23'011.9
2018-Nov-03 18:59N 31°06' E 122°23'4 7.3
2018-Nov-03 18:23N 31°07' E 122°28'  
2018-Oct-30 11:38N 31°09' E 122°13'1713.7
2018-Oct-30 10:25N 31°16' E 121°55'514.1
2018-Oct-30 10:01N 31°17' E 121°49'214.4
2018-Oct-30 09:55N 31°18' E 121°47'4 0.3
2018-Oct-29 22:14N 31°20' E 121°43'2 9.6
2018-Oct-29 22:03N 31°19' E 121°45'0 8.5
2018-Oct-29 22:00N 31°19' E 121°45'5 9.6
2018-Oct-29 21:29N 31°17' E 121°51'4 9.2
2018-Oct-29 21:03N 31°16' E 121°55'0 8.4
2018-Oct-29 21:00N 31°16' E 121°55'5 9.9
2018-Oct-29 20:30N 31°15' E 122°01'4 9.7
2018-Oct-29 20:03N 31°14' E 122°06'1 9.6
2018-Oct-29 19:57N 31°13' E 122°07'510.7
2018-Oct-29 19:30N 31°10' E 122°12'510.9
2018-Oct-29 19:03N 31°07' E 122°16'110.2
2018-Oct-29 19:00N 31°07' E 122°17'510.5
2018-Oct-29 18:30N 31°06' E 122°23'  
Track history (hours):
 
Tides and Currents Weather Stations Pressure Air Temp Water Temp Dewpoint Dewpoint Depression Visibility Wind Speed Wind Dir Waves Ship Positions

Costa Serena

Last reported at 2018-Nov-08 12:05 UTC. Time now 2018-Nov-13 07:05 UTC.
Position N 31°06' E 122°25'.

Length 290 m; draft 8.2 m.

Type: Ship. MMSI: 247187600.

Date/timePositionNaut miles runAvg speedWind from/ knotsBaromVisibWave heightAir tempDewpointWater temp
2018-Nov-08 12:05N 31°06' E 122°25'511.4
2018-Nov-08 11:40N 31°06' E 122°19'412.5
2018-Nov-08 11:20N 31°08' E 122°15'811.1
2018-Nov-08 10:36N 31°13' E 122°07'313.3
2018-Nov-08 10:22N 31°14' E 122°04'814.7
2018-Nov-08 09:50N 31°16' E 121°55'714.9
2018-Nov-08 09:24N 31°18' E 121°48'3 0.3
2018-Nov-07 22:59N 31°19' E 121°45'610.0
2018-Nov-07 22:24N 31°16' E 121°51'3 8.9
2018-Nov-07 22:02N 31°16' E 121°55'4 8.0
2018-Nov-07 21:32N 31°15' E 121°59'4 7.7
2018-Nov-07 21:02N 31°14' E 122°04'4 8.2
2018-Nov-07 20:32N 31°12' E 122°08'4 8.4
2018-Nov-07 20:02N 31°10' E 122°12'5 9.3
2018-Nov-07 19:32N 31°07' E 122°16'7 9.7
2018-Nov-07 18:47N 31°07' E 122°25'2 5.2
2018-Nov-07 18:19N 31°07' E 122°28'5 7.2
2018-Nov-07 17:33N 31°07' E 122°34'  
2018-Nov-03 23:19N 31°21' E 121°40'310.7
2018-Nov-03 23:00N 31°19' E 121°44'611.1
2018-Nov-03 22:30N 31°17' E 121°50'19 9.2
2018-Nov-03 20:28N 31°11' E 122°10'3 7.7
2018-Nov-03 20:03N 31°09' E 122°14'0 7.9
2018-Nov-03 20:00N 31°09' E 122°14'4 7.1
2018-Nov-03 19:30N 31°07' E 122°17'5 9.7
2018-Nov-03 19:02N 31°06' E 122°23'011.9
2018-Nov-03 18:59N 31°06' E 122°23'4 7.3
2018-Nov-03 18:23N 31°07' E 122°28'  
2018-Oct-30 11:38N 31°09' E 122°13'1713.7
2018-Oct-30 10:25N 31°16' E 121°55'514.1
2018-Oct-30 10:01N 31°17' E 121°49'214.4
2018-Oct-30 09:55N 31°18' E 121°47'4 0.3
2018-Oct-29 22:14N 31°20' E 121°43'2 9.6
2018-Oct-29 22:03N 31°19' E 121°45'0 8.5
2018-Oct-29 22:00N 31°19' E 121°45'5 9.6
2018-Oct-29 21:29N 31°17' E 121°51'4 9.2
2018-Oct-29 21:03N 31°16' E 121°55'0 8.4
2018-Oct-29 21:00N 31°16' E 121°55'5 9.9
2018-Oct-29 20:30N 31°15' E 122°01'4 9.7
2018-Oct-29 20:03N 31°14' E 122°06'1 9.6
2018-Oct-29 19:57N 31°13' E 122°07'510.7
2018-Oct-29 19:30N 31°10' E 122°12'510.9
2018-Oct-29 19:03N 31°07' E 122°16'110.2
2018-Oct-29 19:00N 31°07' E 122°17'510.5
2018-Oct-29 18:30N 31°06' E 122°23'  

Dump ship's entire track history